Terminal Aerodrome Forecast
Issued by NWS

Home | Current Version | Previous Version | Text Only | Print | Product List | Glossary On
Versions: 1 2 3 4 5 6 7 8 9 10 11 12 13 14 15 16
000
FTUS42 TJSJ 301100
TAFJMZ
TAF
TJMZ 301120Z 3012/3112 06007KT P6SM FEW030
     FM301530 29010KT P6SM VCTS FEW025CB BKN040
      TEMPO 3016/3020 VRB12KT 5SM -TSRA SCT022CB BKN050
     FM302230 06006KT P6SM SCT030 SCT070=

USA.gov is the U.S. government's official web portal to all federal, state and local government web resources and services.